Aeroporto :
LOGIN :

Iscrizione | Disclaimer

   EN    FR    IT 

 










Sommario :    VFR   VFR Marginale   IFR   IFR Intensivo   IFR Molto Intensivo
Visibilità : 
Base nubi : 
>= 8 km
>= 3000ft
5 / 8 km
1000 / 3000 ft
1500m / 5 km
500 / 1000 ft
800 / 1500m
200 / 500 ft
< 800m
< 200 ft
Simboli :   Temporali  Nebbia  Neve Forte  Precipitazioni Forti  Vento > 20 kt
SIGMETs :   Varie  Temporali  Ghiacco  Turbolenza  Onda orograficha  Ceneri Vulcaniche






- Altitudine del aeroporto : 59 ft
- Codice IATA : TSF


LIPH - Treviso

ULTIMO METAR :
  • 171450Z 14004KT 110V170 9999 FEW015 SCT070 16/11 Q1003

METARs OBSOLETI :
  • 171420Z 12005KT 080V170 9999 FEW015 BKN070 16/12 Q1003
  • 171350Z 12008KT 9999 SCT015 16/12 Q1002
  • 171320Z 13011KT 100V160 9999 FEW015 16/12 Q1002
  • 171250Z 14009KT 100V160 9999 SCT015 16/13 Q1002
  • 171220Z 05008KT 030V090 9999 SCT015 15/14 Q1002
  • 171150Z 02006KT 9999 BKN030 14/13 Q1002

TAF TAF LIPH
Valido dal 17 a 12 ore il 18 a 12 ore UTC


171100Z 1712/1812 04010KT 7000 SCT020 BKN050
TEMPO 1712/1715 4000 SHRA
BECMG 1714/1716 21010KT



MetMap, La meteo Aeronautica in un colpo d'occhio ! - Copyright ORBIFLY Dicembre 2007 - Disclaimer

ORBIFLY MET'MAP TEAM :

Programmazione e sviluppo : Alexandra Zaïnal
Concezione e sviluppo : Baudouin d'Aumeries
Co-Programmazione e sviluppo : Marc-Olivier Méhu
Supporto tecnico e logistico : Manuel Goepfert
Aiuto per la traduzione : Arnaldo La Scala

Contatto : metmap@orbifly.com




FONTI E CREDITI :

   NOAA